Rockville, MD (20851)

11:59 AM EST on January 31, 2015 (GMT -0500)
Twinbrook | Change Station
CLOSE
Current Station
Personal Weather Station
Location: Rockville, MD
Elevation: 377 ft
Nearby Weather Stations

Elev 377 ft 39.08 °N, 77.12 °W | Updated 5 seconds ago

Clear
Clear
27.9 °F
Feels Like 23 °F
N
4.7
Wind Variable Wind from NNW
Gusts 6.9 mph

Today
High -- | Low -- °F
--% Chance of Precip.
Yesterday
High -- | Low -- °F
Precip. -- in
7:16 AM 5:28 PM
Waxing Gibbous, 90% visible
Pressure 30.34 in
Visibility 10.0 miles
Clouds Clear
Windchill 23 °F
Dew Point 7 °F
Humidity 40%
Rainfall 0.00 in
Snow Depth Not available.
UV 4 out of 12
Pollen 1.70 out of 12
Air Quality Not available.
Flu Activity Not available.
METAR KGAI 311655Z 30013G19KT 10SM CLR M05/M14 A3034 RMK AO1

More Conditions Fewer Conditions

Pressure 30.34 in
Visibility 10.0 miles
Clouds Clear
Windchill 23 °F
Dew Point 7 °F
Humidity 40%
Rainfall 0.00 in
Snow Depth Not available.
UV 4 out of 12
Pollen 1.70 out of 12
Air Quality Not available.
Flu Activity Not available.
METAR KGAI 311655Z 30013G19KT 10SM CLR M05/M14 A3034 RMK AO1

More Conditions Fewer Conditions

10-Day Weather Forecast

Almanac

Astronomy

Jan. 31, 2015 Rise Set
Actual Time
Civil Twilight
Nautical Twilight
Astronomical Twilight
Moon
Length of Visible Light
Length of Day
Tomorrow will be .
, % of the Moon is Illuminated

Today's Extremes

State Highs State Lows

Community

WunderPhotos

Upload Photos

1,792,105 photos uploaded!

WunderBlogs® & News

Nearby

Air Quality

  Air Quality AQ Index Pollutant
Not available.

Snow Depth

Station Depth Elevation

Earthquake Activity

City Distance Mag. Time & Date
Minimum magnitude displayed is 2.5.

Coastal Water Temperatures

Place Temperature

Nearby Weather Stations